LIMCLIBD

Guest
Details From LIMC - Milano Malpensa
To LIBD - Bari Palese Macchie
Flight Number -
Tags Generated
Created
Modified
Stats Distance 442 nm / 819 km
Max Altitude 0 ft / 0 m
Waypoints 6
Social Downloads 4
Likes 0
Share VATSIM

Download

Looking for another format? Having issues loading an existing format? Contact us
Advertisement - Login to hide

Notes

Generated

Route

LIMC IPR05 GUBIN PAGUR R2111 LIBD

ID Type Via Altitude Latitude Longitude Leg Dist Tot Dist Heading (true) Name
O LIMC APT - 0 ft / 0 m 45.65044˚ 8.72841˚ - 0 nm - -
IPR05 FIX - 0 ft / 0 m 44.84037˚ 10.30339˚ 82 nm 82 nm 126° / 127° -
GUBIN FIX - 0 ft / 0 m 43.48694˚ 12.77417˚ 133 nm 216 nm 126° / 128° -
PAGUR FIX - 0 ft / 0 m 42.45305˚ 14.54528˚ 99 nm 315 nm 128° / 129° -
R2111 FIX - 0 ft / 0 m 41.13463˚ 16.74687˚ 126 nm 442 nm 128° / 130° -
O LIBD APT - 0 ft / 0 m 41.13463˚ 16.74687˚ 0 nm 442 nm 180° / 180° -

Altitude Profile

Advertisement - Login to hide

Weather


0- 5 10 15 20 25 30 35+ Temperature / ° C

Clouds and Precipitation
Forecast for 2017-12-13 06:00 UTC. Updated an hour ago

Ground ~20,000 ft ~40,000 ft Winds

LIMC

Details ICAO LIMC (MXP)
Name Milano Malpensa
Region Italy
Timezone Europe/Rome (UTC+1.0)
Stats Elevation 767 ft / 234 m (AMSL)
Location 45.630606° 8.728111°
Runways 2
Magnetic Variation 2.377° E

METAR

LIMC 130350Z 06004KT 9999 BCFG NSC M02/M02 Q1015 NOSIG

Decode

TAF

TAF LIMC 122300Z 1300/1406 VRB05KT CAVOK TEMPO 1300/1308 3000 BCFG TEMPO 1322/1406 3000 BCFG

Decode

Departure Runways

ID Width Length Bearing (true) Bearing (mag) Surface Threshold Offset Overrun Length
17L 197 ft / 60 m 12,869 ft / 3,923 m 169.62° 167.24° Asphalt 3,094 ft / 943 m 0 ft / 0 m
17R 197 ft / 60 m 12,869 ft / 3,923 m 169.62° 167.24° Asphalt 0 ft / 0 m 0 ft / 0 m
35L 197 ft / 60 m 12,869 ft / 3,923 m 349.62° 347.24° Asphalt 1,329 ft / 405 m 0 ft / 0 m
35R 197 ft / 60 m 12,869 ft / 3,923 m 349.62° 347.24° Asphalt 0 ft / 0 m 0 ft / 0 m

LIBD

Details ICAO LIBD (BRI)
Name Bari Palese Macchie
Region Italy
Timezone Europe/Rome (UTC+1.0)
Stats Elevation 177 ft / 54 m (AMSL)
Location 41.137865° 16.758318°
Runways 1
Magnetic Variation 3.737° E

METAR

LIBD 130350Z 25004KT CAVOK 11/07 Q1018

Decode

TAF

TAF LIBD 122300Z 1300/1324 21008KT 9999 SCT030 TEMPO 1309/1318 RA BECMG 1312/1315 30010KT

Decode

Destination Runways

ID Width Length Bearing (true) Bearing (mag) Surface Threshold Offset Overrun Length
07 148 ft / 45 m 9,262 ft / 2,823 m 69.39° 65.65° Asphalt 1,257 ft / 383 m 0 ft / 0 m
25 148 ft / 45 m 9,262 ft / 2,823 m 249.42° 245.68° Asphalt 0 ft / 0 m 194 ft / 59 m

Approach Navaids

Runway Type Ident Frequency Range Bearing (true) Bearing (mag) Slope Elevation
07 Localiser BAP 111.35 MHz 18 nm / 33 km 69.25° 65.51° - 177 ft / 54 m (AMSL)
07 Glidescope BAP 111.35 MHz 10 nm / 19 km 69.25° 65.51° 3.32° 177 ft / 54 m (AMSL)
07 DME BAP 111.35 MHz 18 nm / 33 km - - - 183 ft / 56 m (AMSL)

Popular Alternatives